createdAt,value
2022-10-10T06:57:27.951Z,93.40
2022-10-10T07:01:04.234Z,15.20
2022-10-10T07:03:32.546Z,14.80
2022-10-10T07:06:02.324Z,14.70
2022-10-10T07:08:30.795Z,16.40
2022-10-10T07:10:58.465Z,16.60
2022-10-10T07:13:26.191Z,13.10
2022-10-10T07:15:54.103Z,12.90
2022-10-10T07:18:22.130Z,13.00
2022-10-10T07:20:50.005Z,11.80
2022-10-10T07:23:17.970Z,13.30
2022-10-10T07:25:45.950Z,14.60
2022-10-10T07:28:14.122Z,12.40
2022-10-10T07:30:43.916Z,12.50
2022-10-10T07:33:15.976Z,23.80
2022-10-10T07:35:53.540Z,12.90
2022-10-10T07:38:21.242Z,14.20
2022-10-10T07:40:48.956Z,16.70
2022-10-10T07:43:16.627Z,14.10
2022-10-10T07:45:44.320Z,13.30
2022-10-10T07:48:12.553Z,12.30
2022-10-10T07:50:42.595Z,12.80
2022-10-10T07:53:11.753Z,11.50
2022-10-10T07:55:41.074Z,12.30
2022-10-10T07:58:10.904Z,11.90
2022-10-10T08:00:42.539Z,12.40
2022-10-10T08:03:12.494Z,12.70
2022-10-10T08:05:47.014Z,12.90
2022-10-10T08:08:14.703Z,12.90
2022-10-10T08:10:43.840Z,12.20
2022-10-10T08:13:11.518Z,11.10
2022-10-10T08:15:40.216Z,11.30
2022-10-10T08:18:08.002Z,10.90
2022-10-10T08:20:35.695Z,10.80
2022-10-10T08:23:03.427Z,11.40
2022-10-10T08:25:31.294Z,11.10
2022-10-10T08:27:59.285Z,10.80
2022-10-10T08:30:27.109Z,11.00
2022-10-10T08:32:55.169Z,10.60
2022-10-10T08:35:23.040Z,10.10
2022-10-10T08:37:50.712Z,9.30
2022-10-10T08:40:21.242Z,10.00
2022-10-10T08:42:53.155Z,10.10
2022-10-10T08:45:25.021Z,9.60
2022-10-10T08:48:01.587Z,9.20
2022-10-10T08:50:41.007Z,9.60
2022-10-10T08:53:21.718Z,9.60
2022-10-10T08:55:50.102Z,9.10
2022-10-10T08:58:27.170Z,8.80
2022-10-10T09:00:56.986Z,8.40
2022-10-10T09:03:35.268Z,8.60
2022-10-10T09:06:02.915Z,8.40
2022-10-10T09:08:47.279Z,8.50
2022-10-10T09:11:37.936Z,9.30
2022-10-10T09:14:36.967Z,8.50
2022-10-10T09:17:52.863Z,9.50
2022-10-10T09:20:53.647Z,8.70
2022-10-10T09:23:39.768Z,8.30
2022-10-10T09:26:12.666Z,8.70
2022-10-10T09:28:48.248Z,7.80
2022-10-10T09:31:19.917Z,8.00
2022-10-10T09:34:00.300Z,8.10
2022-10-10T09:36:34.325Z,8.20
2022-10-10T09:39:13.200Z,7.90
2022-10-10T09:41:47.540Z,7.30
2022-10-10T09:44:19.601Z,7.70
2022-10-10T09:46:47.827Z,7.90
2022-10-10T09:49:17.815Z,7.40
2022-10-10T09:51:46.585Z,7.70
2022-10-10T09:54:17.413Z,7.30
2022-10-10T09:56:50.635Z,7.60
2022-10-10T09:59:41.881Z,7.00
2022-10-10T10:02:19.520Z,7.30
2022-10-10T10:04:49.310Z,7.30
2022-10-10T10:07:36.323Z,7.70
2022-10-10T10:10:25.567Z,6.90
2022-10-10T10:12:55.180Z,6.90
2022-10-10T10:15:32.235Z,6.80
2022-10-10T10:18:27.480Z,7.40
2022-10-10T10:21:23.725Z,6.90
2022-10-10T10:23:59.507Z,7.10
2022-10-10T10:26:45.672Z,7.20
2022-10-10T10:29:28.678Z,7.50
2022-10-10T10:32:05.332Z,6.70
2022-10-10T10:34:32.983Z,6.70
2022-10-10T10:37:23.252Z,6.70
2022-10-10T10:40:12.195Z,7.30
2022-10-10T10:42:51.184Z,7.20
2022-10-10T10:45:26.673Z,7.40
2022-10-10T10:47:57.248Z,6.80
2022-10-10T10:50:52.491Z,6.40
2022-10-10T10:53:42.453Z,6.40
2022-10-10T10:56:22.602Z,7.80
2022-10-10T11:02:07.241Z,6.10
2022-10-10T11:05:17.913Z,6.00
2022-10-10T11:08:51.734Z,6.20
2022-10-10T11:11:45.858Z,6.30
2022-10-10T11:14:34.326Z,5.90
2022-10-10T11:17:16.618Z,6.50
2022-10-10T11:19:58.179Z,6.20
2022-10-10T11:22:31.683Z,5.90
2022-10-10T11:25:23.941Z,5.70
2022-10-10T11:28:06.560Z,5.60
2022-10-10T11:30:39.412Z,6.10
2022-10-10T11:33:16.417Z,5.40
2022-10-10T11:35:55.684Z,5.60
2022-10-10T11:38:32.086Z,5.90
2022-10-10T11:41:05.564Z,6.20
2022-10-10T11:43:47.723Z,6.30
2022-10-10T11:46:29.475Z,6.00
2022-10-10T11:49:06.028Z,5.60
2022-10-10T11:52:09.513Z,5.80
2022-10-10T11:54:55.444Z,5.30
2022-10-10T11:57:33.596Z,6.00
2022-10-10T12:00:10.503Z,5.60
2022-10-10T12:02:43.127Z,6.10
2022-10-10T12:05:28.569Z,5.90
2022-10-10T12:08:07.346Z,28.80
2022-10-10T12:10:37.788Z,15.30
2022-10-10T12:13:30.857Z,8.00
2022-10-10T12:16:05.702Z,10.20
2022-10-10T12:18:44.722Z,17.30
2022-10-10T12:21:15.885Z,12.80
2022-10-10T12:23:48.364Z,19.40
2022-10-10T12:26:19.373Z,9.10
2022-10-10T12:29:09.933Z,8.20
2022-10-10T12:31:39.634Z,8.10
2022-10-10T12:34:15.995Z,7.10
2022-10-10T12:36:55.833Z,8.80
2022-10-10T12:39:35.957Z,8.20
2022-10-10T12:42:04.322Z,6.60
2022-10-10T12:44:35.095Z,5.60
2022-10-10T12:48:03.950Z,6.20
2022-10-10T12:50:32.546Z,8.00
2022-10-10T12:53:03.916Z,10.00
2022-10-10T12:55:45.079Z,12.20
2022-10-10T12:58:40.987Z,7.70
2022-10-10T13:01:31.891Z,6.90
2022-10-10T13:04:00.201Z,9.10
2022-10-10T13:06:40.428Z,10.70
2022-10-10T13:09:35.084Z,12.40
2022-10-10T13:12:06.002Z,17.60
2022-10-10T13:14:42.958Z,17.10
2022-10-10T13:17:21.714Z,9.90
2022-10-10T13:19:50.471Z,27.00
2022-10-10T13:22:19.236Z,25.20
2022-10-10T13:24:48.233Z,14.30
2022-10-10T13:27:19.148Z,67.30
2022-10-10T13:29:47.418Z,65.20
2022-10-10T13:32:20.145Z,13.70
2022-10-10T13:34:59.075Z,10.80
2022-10-10T13:37:27.837Z,18.40
2022-10-10T13:39:56.106Z,16.80
2022-10-10T13:42:33.529Z,17.80
2022-10-10T13:45:26.564Z,9.80
2022-10-10T13:48:02.256Z,18.90
2022-10-10T13:51:47.027Z,107.80
2022-10-10T13:54:39.693Z,8.00
2022-10-10T13:57:14.488Z,10.70
2022-10-10T13:59:44.300Z,8.40
2022-10-10T14:02:15.346Z,10.40
2022-10-10T14:04:50.724Z,10.00
2022-10-10T14:07:28.088Z,17.10
2022-10-10T14:10:05.014Z,11.20
2022-10-10T14:12:41.451Z,17.70
2022-10-10T14:15:44.907Z,18.20
2022-10-10T14:18:17.455Z,26.60
2022-10-10T14:20:46.399Z,17.30
2022-10-10T14:23:14.697Z,14.60
2022-10-10T14:25:45.124Z,73.70
2022-10-10T14:28:17.071Z,26.70
2022-10-10T14:30:45.023Z,21.10
2022-10-10T14:33:14.988Z,10.70
2022-10-10T14:35:42.927Z,12.60
2022-10-10T14:38:12.698Z,28.80
2022-10-10T14:40:46.521Z,50.70
2022-10-10T14:43:16.763Z,15.80
2022-10-10T14:45:45.117Z,16.60
2022-10-10T14:48:13.072Z,21.60
2022-10-10T14:50:44.197Z,12.30
2022-10-10T14:53:13.627Z,15.50
2022-10-10T14:55:43.705Z,18.80
2022-10-10T14:58:21.364Z,12.50
2022-10-10T15:00:51.539Z,13.10
2022-10-10T15:03:19.269Z,102.20
2022-10-10T15:05:50.955Z,14.90
2022-10-10T15:08:19.347Z,17.10
2022-10-10T15:10:48.194Z,13.80
2022-10-10T15:13:16.836Z,17.60
2022-10-10T15:15:46.521Z,25.60
2022-10-10T15:18:39.620Z,22.30
2022-10-10T15:21:08.859Z,14.70
2022-10-10T15:23:36.659Z,17.60
2022-10-10T15:26:05.741Z,23.90
2022-10-10T15:28:34.633Z,19.40
2022-10-10T15:31:02.727Z,18.30
2022-10-10T15:33:31.033Z,27.20
2022-10-10T15:36:09.096Z,17.50
2022-10-10T15:38:39.544Z,31.60
2022-10-10T15:41:09.585Z,16.40
2022-10-10T15:43:52.045Z,17.00
2022-10-10T15:46:27.857Z,17.70
2022-10-10T15:49:01.035Z,29.80
2022-10-10T15:51:29.541Z,17.80
2022-10-10T15:54:00.720Z,20.60
2022-10-10T15:56:30.587Z,25.80
2022-10-10T15:59:00.536Z,29.90
2022-10-10T16:01:29.974Z,29.20
2022-10-10T16:03:58.312Z,31.30
2022-10-10T16:06:26.006Z,29.20
2022-10-10T16:09:10.114Z,30.40
2022-10-10T16:11:42.149Z,47.40
2022-10-10T16:15:22.845Z,25.60
2022-10-10T16:17:50.505Z,13.40
2022-10-10T16:20:18.297Z,14.70
2022-10-10T16:22:45.976Z,25.70
2022-10-10T16:25:22.731Z,25.90
2022-10-10T16:27:52.895Z,37.90
2022-10-10T16:30:21.530Z,37.50
2022-10-10T16:32:49.872Z,34.20
2022-10-10T16:35:17.817Z,34.20
2022-10-10T16:37:45.858Z,25.10
2022-10-10T16:40:13.643Z,21.10
2022-10-10T16:42:41.399Z,31.30
2022-10-10T16:45:10.226Z,64.60
2022-10-10T16:47:37.906Z,40.90
2022-10-10T16:50:06.719Z,28.20
2022-10-10T16:52:38.015Z,29.20
2022-10-10T16:55:07.684Z,33.90
2022-10-10T16:57:36.190Z,30.00
2022-10-10T17:00:07.036Z,146.40
2022-10-10T17:04:34.042Z,21.70
2022-10-10T17:07:01.991Z,24.80
2022-10-10T17:09:30.771Z,30.10
2022-10-10T17:11:58.450Z,55.60
2022-10-10T17:14:26.237Z,71.80
2022-10-10T17:19:42.295Z,37.10
2022-10-10T17:22:10.127Z,55.70
2022-10-10T17:24:37.976Z,49.30
2022-10-10T17:27:05.817Z,45.70
2022-10-10T17:29:33.757Z,45.00
2022-10-10T17:32:05.913Z,59.30
2022-10-10T17:34:34.527Z,52.30
2022-10-10T17:37:03.713Z,74.60
2022-10-10T17:39:32.045Z,109.60
2022-10-10T17:42:00.371Z,65.80
2022-10-10T17:44:28.808Z,60.40
2022-10-10T17:46:56.754Z,79.50
2022-10-10T17:49:24.582Z,73.50
2022-10-10T17:51:52.470Z,85.40
2022-10-10T17:54:20.427Z,173.10
2022-10-10T17:56:48.181Z,97.50
2022-10-10T17:59:16.114Z,103.80
2022-10-10T18:01:43.739Z,96.10
2022-10-10T18:04:15.251Z,114.90
2022-10-10T18:06:42.898Z,75.40
2022-10-10T18:09:10.766Z,65.80
2022-10-10T18:11:38.600Z,63.90
2022-10-10T18:14:06.304Z,57.50
2022-10-10T18:16:34.864Z,56.60
2022-10-10T18:19:05.763Z,77.50
2022-10-10T18:21:34.746Z,64.20
2022-10-10T18:24:02.901Z,70.10
2022-10-10T18:27:53.080Z,117.90
2022-10-10T18:30:21.064Z,154.00
2022-10-10T18:32:50.971Z,162.00
2022-10-10T18:35:19.477Z,186.40
2022-10-10T18:37:47.118Z,165.00
2022-10-10T18:40:16.564Z,219.70
2022-10-10T18:44:18.977Z,129.90
2022-10-10T18:46:48.631Z,137.20
2022-10-10T18:49:16.387Z,126.90
2022-10-10T18:51:45.462Z,126.50
2022-10-10T18:54:15.773Z,115.30
2022-10-10T18:56:44.435Z,100.80
2022-10-10T18:59:22.252Z,94.40
2022-10-10T19:01:52.301Z,94.70
2022-10-10T19:04:20.764Z,100.00
2022-10-10T19:06:53.216Z,58.10
2022-10-10T19:47:05.345Z,79.00
2022-10-10T19:49:33.018Z,85.70
2022-10-10T19:52:00.688Z,87.70
2022-10-10T19:54:28.407Z,89.80
2022-10-10T19:56:56.290Z,85.30
2022-10-10T19:59:24.067Z,77.50
2022-10-10T20:01:52.013Z,72.30
2022-10-10T20:04:19.913Z,68.30
2022-10-10T20:06:47.655Z,72.40
2022-10-10T20:09:15.440Z,66.40
2022-10-10T20:11:43.091Z,68.80
2022-10-10T20:15:45.077Z,62.80
2022-10-10T20:18:13.214Z,58.30
2022-10-10T20:20:43.062Z,68.50
2022-10-10T20:23:11.149Z,72.40
2022-10-10T20:25:40.802Z,71.30
2022-10-10T20:28:09.402Z,63.40
2022-10-10T20:30:43.438Z,56.00
2022-10-10T20:33:11.366Z,55.40
2022-10-10T20:38:15.430Z,56.40
2022-10-10T20:40:44.795Z,59.60
2022-10-10T20:43:14.149Z,58.70
2022-10-10T20:45:42.437Z,59.10
2022-10-10T20:48:10.117Z,57.30
2022-10-10T20:50:39.034Z,59.60
2022-10-10T20:53:07.045Z,64.00
2022-10-10T20:55:34.707Z,60.50
2022-10-10T20:58:02.468Z,57.60
2022-10-10T21:00:30.177Z,44.80
2022-10-10T21:02:58.026Z,41.80
2022-10-10T21:05:25.758Z,45.40
2022-10-10T21:07:53.445Z,46.00
2022-10-10T21:10:21.184Z,42.50
2022-10-10T21:12:48.990Z,43.30
2022-10-10T21:15:17.118Z,63.80
2022-10-10T21:17:49.389Z,61.80
2022-10-10T21:20:17.216Z,37.10
2022-10-10T21:22:45.133Z,41.10
2022-10-10T21:25:13.505Z,51.90
2022-10-10T21:27:41.245Z,62.80
2022-10-10T21:30:09.332Z,66.20
2022-10-10T21:32:37.005Z,61.40
2022-10-10T21:35:05.348Z,58.80
2022-10-10T21:37:34.589Z,53.50
2022-10-10T21:40:02.345Z,41.10
2022-10-10T21:42:30.216Z,38.90
2022-10-10T21:44:57.897Z,40.20
2022-10-10T21:47:25.541Z,130.90
2022-10-10T21:49:53.314Z,59.30
2022-10-10T21:52:21.314Z,34.70
2022-10-10T21:54:50.582Z,138.60
2022-10-10T21:57:18.514Z,114.90
2022-10-10T21:59:46.311Z,45.70
2022-10-10T22:02:13.958Z,33.90
2022-10-10T22:04:41.723Z,33.00
2022-10-10T22:07:09.434Z,30.70
2022-10-10T22:09:37.201Z,34.90
2022-10-10T22:12:05.332Z,30.40
2022-10-10T22:14:33.318Z,32.00
2022-10-10T22:17:00.947Z,47.30
2022-10-10T22:19:28.702Z,43.00
2022-10-10T22:21:56.507Z,36.00
2022-10-10T22:24:24.615Z,30.60
